Terminal Aerodrome Forecast
Issued by NWS Cleveland, OH

Home | Current Version | Previous Version | Text Only | Print | Product List | Glossary Off
Versions: 1 2 3 4 5 6 7 8 9 10 11 12 13 14 15 16

510
FTUS41 KCLE 211858 AAA
TAFMFD
TAF AMD
KMFD 211858Z 2119/2218 36010KT P6SM BKN012 OVC050
      TEMPO 2119/2121 5SM -RA BKN008
     FM212100 36010KT P6SM BKN025 OVC060
     FM220300 33003KT P6SM SCT070 BKN200
     FM220800 30003KT 5SM BR SCT200
     FM221500 33008KT P6SM BKN030=

USA.gov is the U.S. government's official web portal to all federal, state and local government web resources and services.